Disclaimer

Please do not use the information listed here in-flight or in-navigation, as they are not provided to us by the airports but are provided by volunteers, so they might be outdated.

Search


Regions


Airport information page

Radio informations:
PACIFIC RDO - 126.7 MHz
VANCOUVER CNTR - 133.4 MHz
AWOS - 122.55 MHz
TERRACE RDO - 122.3 MHz

Airport informations:
Latitude: 53° 15' 15.60" N
Longitude: 131° 48' 49.80" W
Elevation: 21 feet - 6 meters
Operating hours: N/A
Operating agency: Civil government, landing fees and diplomatic clearance may be required
Timezone: N/A
Fuel: Jet A1, without icing nhibitor.

100/130 MIL Spec, low lead, aviation gasoline (BLUE)

Runway information:
12/30 - 5120 x 150 feet< - >1561 x 46 meters

Recent METARs:
CYZP 181700Z AUTO 15007KT 9SM FEW002 BKN220 07/07 A3015 RMK SLP213
CYZP 181752Z AUTO 15008KT 6SM BR BKN002 09/08 A3015 RMK SLP213
CYZP 181829Z AUTO 14009KT 9SM SCT002 BKN210 09/09 A3015 RMK SLP211

Airport on the map: